sensor_id;sensor_type;location;lat;lon;timestamp;P1;durP1;ratioP1;P2;durP2;ratioP2
48667;SDS011;34453;52.198;5.004;2023-07-31T00:02:19;11.80;;;2.70;;
48667;SDS011;34453;52.198;5.004;2023-07-31T00:04:45;17.70;;;3.22;;
48667;SDS011;34453;52.198;5.004;2023-07-31T00:07:11;11.40;;;3.35;;
48667;SDS011;34453;52.198;5.004;2023-07-31T00:09:36;7.28;;;3.17;;
48667;SDS011;34453;52.198;5.004;2023-07-31T00:12:02;6.57;;;3.33;;
48667;SDS011;34453;52.198;5.004;2023-07-31T00:14:28;10.02;;;3.65;;
48667;SDS011;34453;52.198;5.004;2023-07-31T00:16:53;8.27;;;4.05;;
48667;SDS011;34453;52.198;5.004;2023-07-31T00:19:19;19.98;;;6.28;;
48667;SDS011;34453;52.198;5.004;2023-07-31T00:21:44;23.60;;;6.82;;
48667;SDS011;34453;52.198;5.004;2023-07-31T00:24:10;27.60;;;7.45;;
48667;SDS011;34453;52.198;5.004;2023-07-31T00:26:35;30.02;;;7.78;;
48667;SDS011;34453;52.198;5.004;2023-07-31T00:29:01;36.38;;;8.48;;
48667;SDS011;34453;52.198;5.004;2023-07-31T00:31:26;28.77;;;8.63;;
48667;SDS011;34453;52.198;5.004;2023-07-31T00:33:51;33.65;;;8.30;;
48667;SDS011;34453;52.198;5.004;2023-07-31T00:36:17;28.88;;;7.43;;
48667;SDS011;34453;52.198;5.004;2023-07-31T00:38:43;22.00;;;6.45;;
48667;SDS011;34453;52.198;5.004;2023-07-31T00:41:09;20.30;;;5.60;;
48667;SDS011;34453;52.198;5.004;2023-07-31T00:43:34;24.10;;;6.47;;
48667;SDS011;34453;52.198;5.004;2023-07-31T00:46:00;23.40;;;4.57;;
48667;SDS011;34453;52.198;5.004;2023-07-31T00:48:25;13.88;;;3.55;;
48667;SDS011;34453;52.198;5.004;2023-07-31T00:50:51;9.63;;;3.70;;
48667;SDS011;34453;52.198;5.004;2023-07-31T00:53:17;9.65;;;3.00;;
48667;SDS011;34453;52.198;5.004;2023-07-31T00:55:43;11.35;;;3.47;;
48667;SDS011;34453;52.198;5.004;2023-07-31T00:58:09;8.20;;;3.58;;
48667;SDS011;34453;52.198;5.004;2023-07-31T01:00:35;6.30;;;2.53;;
48667;SDS011;34453;52.198;5.004;2023-07-31T01:03:00;7.13;;;3.40;;
48667;SDS011;34453;52.198;5.004;2023-07-31T01:11:16;7.18;;;2.33;;
48667;SDS011;34453;52.198;5.004;2023-07-31T01:13:45;5.60;;;2.40;;
48667;SDS011;34453;52.198;5.004;2023-07-31T01:16:11;6.47;;;2.80;;
48667;SDS011;34453;52.198;5.004;2023-07-31T01:18:37;7.13;;;3.53;;
48667;SDS011;34453;52.198;5.004;2023-07-31T01:24:35;9.73;;;3.13;;
48667;SDS011;34453;52.198;5.004;2023-07-31T01:27:23;8.77;;;2.95;;
48667;SDS011;34453;52.198;5.004;2023-07-31T01:32:23;11.90;;;3.75;;
48667;SDS011;34453;52.198;5.004;2023-07-31T01:34:50;12.65;;;4.05;;
48667;SDS011;34453;52.198;5.004;2023-07-31T01:37:17;15.68;;;5.40;;
48667;SDS011;34453;52.198;5.004;2023-07-31T01:39:43;21.58;;;5.72;;
48667;SDS011;34453;52.198;5.004;2023-07-31T01:42:08;28.08;;;6.93;;
48667;SDS011;34453;52.198;5.004;2023-07-31T01:44:33;15.20;;;6.97;;
48667;SDS011;34453;52.198;5.004;2023-07-31T01:46:59;26.48;;;6.88;;
48667;SDS011;34453;52.198;5.004;2023-07-31T01:49:25;26.17;;;8.65;;
48667;SDS011;34453;52.198;5.004;2023-07-31T01:51:51;26.80;;;6.45;;
48667;SDS011;34453;52.198;5.004;2023-07-31T01:54:16;21.65;;;6.35;;
48667;SDS011;34453;52.198;5.004;2023-07-31T01:56:42;27.23;;;7.38;;
48667;SDS011;34453;52.198;5.004;2023-07-31T01:59:07;31.77;;;7.38;;
48667;SDS011;34453;52.198;5.004;2023-07-31T02:01:33;25.13;;;6.97;;
48667;SDS011;34453;52.198;5.004;2023-07-31T02:03:58;22.95;;;7.65;;
48667;SDS011;34453;52.198;5.004;2023-07-31T02:06:23;22.58;;;7.55;;
48667;SDS011;34453;52.198;5.004;2023-07-31T02:08:49;26.30;;;7.88;;
48667;SDS011;34453;52.198;5.004;2023-07-31T02:11:14;29.70;;;7.78;;
48667;SDS011;34453;52.198;5.004;2023-07-31T02:13:40;24.98;;;6.70;;
48667;SDS011;34453;52.198;5.004;2023-07-31T02:16:05;28.38;;;7.05;;
48667;SDS011;34453;52.198;5.004;2023-07-31T02:18:30;25.85;;;8.05;;
48667;SDS011;34453;52.198;5.004;2023-07-31T02:20:56;22.60;;;6.53;;
48667;SDS011;34453;52.198;5.004;2023-07-31T02:23:21;38.20;;;8.70;;
48667;SDS011;34453;52.198;5.004;2023-07-31T02:25:47;26.20;;;6.70;;
48667;SDS011;34453;52.198;5.004;2023-07-31T02:28:12;20.63;;;7.38;;
48667;SDS011;34453;52.198;5.004;2023-07-31T02:30:38;27.95;;;7.68;;
48667;SDS011;34453;52.198;5.004;2023-07-31T02:33:04;24.17;;;7.63;;
48667;SDS011;34453;52.198;5.004;2023-07-31T02:35:30;36.72;;;7.45;;
48667;SDS011;34453;52.198;5.004;2023-07-31T02:37:55;37.35;;;8.88;;
48667;SDS011;34453;52.198;5.004;2023-07-31T02:40:21;30.42;;;7.05;;
48667;SDS011;34453;52.198;5.004;2023-07-31T02:42:46;31.13;;;7.85;;
48667;SDS011;34453;52.198;5.004;2023-07-31T02:45:12;26.95;;;7.30;;
48667;SDS011;34453;52.198;5.004;2023-07-31T02:47:38;30.50;;;8.80;;
48667;SDS011;34453;52.198;5.004;2023-07-31T02:50:03;29.83;;;7.43;;
48667;SDS011;34453;52.198;5.004;2023-07-31T02:52:29;33.15;;;7.65;;
48667;SDS011;34453;52.198;5.004;2023-07-31T02:54:55;28.77;;;7.10;;
48667;SDS011;34453;52.198;5.004;2023-07-31T02:57:20;30.10;;;7.35;;
48667;SDS011;34453;52.198;5.004;2023-07-31T02:59:46;25.35;;;7.57;;
48667;SDS011;34453;52.198;5.004;2023-07-31T03:02:11;33.45;;;7.95;;
48667;SDS011;34453;52.198;5.004;2023-07-31T03:04:38;37.45;;;8.13;;
48667;SDS011;34453;52.198;5.004;2023-07-31T03:07:03;47.78;;;9.43;;
48667;SDS011;34453;52.198;5.004;2023-07-31T03:09:29;34.47;;;7.60;;
48667;SDS011;34453;52.198;5.004;2023-07-31T03:11:55;22.60;;;6.95;;
48667;SDS011;34453;52.198;5.004;2023-07-31T03:14:20;43.90;;;8.85;;
48667;SDS011;34453;52.198;5.004;2023-07-31T03:16:45;32.35;;;6.78;;
48667;SDS011;34453;52.198;5.004;2023-07-31T03:19:11;43.15;;;11.77;;
48667;SDS011;34453;52.198;5.004;2023-07-31T03:21:36;29.73;;;8.80;;
48667;SDS011;34453;52.198;5.004;2023-07-31T03:24:02;34.95;;;7.82;;
48667;SDS011;34453;52.198;5.004;2023-07-31T03:26:27;28.23;;;8.27;;
48667;SDS011;34453;52.198;5.004;2023-07-31T03:28:54;29.35;;;7.40;;
48667;SDS011;34453;52.198;5.004;2023-07-31T03:31:20;20.77;;;6.80;;
48667;SDS011;34453;52.198;5.004;2023-07-31T03:33:45;20.95;;;7.25;;
48667;SDS011;34453;52.198;5.004;2023-07-31T03:36:11;27.75;;;6.32;;
48667;SDS011;34453;52.198;5.004;2023-07-31T03:38:36;27.40;;;6.93;;
48667;SDS011;34453;52.198;5.004;2023-07-31T03:41:01;33.50;;;8.50;;
48667;SDS011;34453;52.198;5.004;2023-07-31T03:43:27;24.10;;;7.65;;
48667;SDS011;34453;52.198;5.004;2023-07-31T03:45:52;27.08;;;7.53;;
48667;SDS011;34453;52.198;5.004;2023-07-31T03:48:18;23.15;;;7.05;;
48667;SDS011;34453;52.198;5.004;2023-07-31T03:50:43;22.30;;;6.28;;
48667;SDS011;34453;52.198;5.004;2023-07-31T03:53:09;29.77;;;8.38;;
48667;SDS011;34453;52.198;5.004;2023-07-31T03:55:34;18.50;;;6.32;;
48667;SDS011;34453;52.198;5.004;2023-07-31T03:58:00;20.48;;;6.40;;
48667;SDS011;34453;52.198;5.004;2023-07-31T04:00:26;29.48;;;7.03;;
48667;SDS011;34453;52.198;5.004;2023-07-31T04:02:52;32.05;;;7.03;;
48667;SDS011;34453;52.198;5.004;2023-07-31T04:05:17;26.13;;;7.70;;
48667;SDS011;34453;52.198;5.004;2023-07-31T04:07:43;25.98;;;6.68;;
48667;SDS011;34453;52.198;5.004;2023-07-31T04:10:08;32.63;;;6.80;;
48667;SDS011;34453;52.198;5.004;2023-07-31T04:12:34;20.20;;;5.85;;
48667;SDS011;34453;52.198;5.004;2023-07-31T04:14:59;18.85;;;7.57;;
48667;SDS011;34453;52.198;5.004;2023-07-31T04:17:24;20.30;;;6.90;;
48667;SDS011;34453;52.198;5.004;2023-07-31T04:19:50;20.92;;;5.70;;
48667;SDS011;34453;52.198;5.004;2023-07-31T04:22:15;28.75;;;7.60;;
48667;SDS011;34453;52.198;5.004;2023-07-31T04:24:41;26.45;;;7.53;;
48667;SDS011;34453;52.198;5.004;2023-07-31T04:27:06;27.80;;;6.78;;
48667;SDS011;34453;52.198;5.004;2023-07-31T04:29:32;25.52;;;8.23;;
48667;SDS011;34453;52.198;5.004;2023-07-31T04:31:57;17.75;;;5.72;;
48667;SDS011;34453;52.198;5.004;2023-07-31T04:34:22;17.83;;;5.75;;
48667;SDS011;34453;52.198;5.004;2023-07-31T04:36:48;18.63;;;7.13;;
48667;SDS011;34453;52.198;5.004;2023-07-31T04:39:13;21.67;;;6.05;;
48667;SDS011;34453;52.198;5.004;2023-07-31T04:41:39;21.08;;;6.35;;
48667;SDS011;34453;52.198;5.004;2023-07-31T04:44:04;19.42;;;7.10;;
48667;SDS011;34453;52.198;5.004;2023-07-31T04:46:30;14.02;;;5.50;;
48667;SDS011;34453;52.198;5.004;2023-07-31T04:48:56;17.30;;;7.22;;
48667;SDS011;34453;52.198;5.004;2023-07-31T04:51:21;14.07;;;5.43;;
48667;SDS011;34453;52.198;5.004;2023-07-31T04:53:48;13.48;;;5.68;;
48667;SDS011;34453;52.198;5.004;2023-07-31T04:56:13;13.10;;;5.25;;
48667;SDS011;34453;52.198;5.004;2023-07-31T04:58:40;14.18;;;5.35;;
48667;SDS011;34453;52.198;5.004;2023-07-31T05:01:05;9.93;;;5.00;;
48667;SDS011;34453;52.198;5.004;2023-07-31T05:03:31;10.70;;;5.68;;
48667;SDS011;34453;52.198;5.004;2023-07-31T05:05:56;12.75;;;5.35;;
48667;SDS011;34453;52.198;5.004;2023-07-31T05:08:22;10.85;;;5.20;;
48667;SDS011;34453;52.198;5.004;2023-07-31T05:10:49;13.05;;;5.30;;
48667;SDS011;34453;52.198;5.004;2023-07-31T05:13:15;8.88;;;4.05;;
48667;SDS011;34453;52.198;5.004;2023-07-31T05:15:41;12.15;;;5.15;;
48667;SDS011;34453;52.198;5.004;2023-07-31T05:18:06;11.20;;;5.13;;
48667;SDS011;34453;52.198;5.004;2023-07-31T05:20:31;15.05;;;5.18;;
48667;SDS011;34453;52.198;5.004;2023-07-31T05:22:57;10.88;;;4.90;;
48667;SDS011;34453;52.198;5.004;2023-07-31T05:25:22;10.38;;;4.90;;
48667;SDS011;34453;52.198;5.004;2023-07-31T05:27:48;9.48;;;4.05;;
48667;SDS011;34453;52.198;5.004;2023-07-31T05:30:13;8.20;;;4.15;;
48667;SDS011;34453;52.198;5.004;2023-07-31T05:32:39;7.22;;;4.13;;
48667;SDS011;34453;52.198;5.004;2023-07-31T05:35:04;5.68;;;3.65;;
48667;SDS011;34453;52.198;5.004;2023-07-31T05:37:30;8.95;;;4.28;;
48667;SDS011;34453;52.198;5.004;2023-07-31T05:39:56;7.07;;;3.83;;
48667;SDS011;34453;52.198;5.004;2023-07-31T05:42:21;7.28;;;3.92;;
48667;SDS011;34453;52.198;5.004;2023-07-31T05:44:47;7.57;;;3.70;;
48667;SDS011;34453;52.198;5.004;2023-07-31T05:47:12;10.65;;;3.55;;
48667;SDS011;34453;52.198;5.004;2023-07-31T05:49:38;10.07;;;4.70;;
48667;SDS011;34453;52.198;5.004;2023-07-31T05:52:03;8.98;;;3.72;;
48667;SDS011;34453;52.198;5.004;2023-07-31T05:54:29;5.38;;;3.80;;
48667;SDS011;34453;52.198;5.004;2023-07-31T05:56:55;5.97;;;4.15;;
48667;SDS011;34453;52.198;5.004;2023-07-31T05:59:20;9.55;;;4.57;;
48667;SDS011;34453;52.198;5.004;2023-07-31T06:01:46;5.63;;;3.58;;
48667;SDS011;34453;52.198;5.004;2023-07-31T06:04:11;6.75;;;4.30;;
48667;SDS011;34453;52.198;5.004;2023-07-31T06:06:37;6.68;;;4.15;;
48667;SDS011;34453;52.198;5.004;2023-07-31T06:09:02;10.40;;;3.63;;
48667;SDS011;34453;52.198;5.004;2023-07-31T06:11:28;4.30;;;3.20;;
48667;SDS011;34453;52.198;5.004;2023-07-31T06:13:54;9.05;;;3.47;;
48667;SDS011;34453;52.198;5.004;2023-07-31T06:16:19;3.58;;;2.92;;
48667;SDS011;34453;52.198;5.004;2023-07-31T06:18:46;3.78;;;3.25;;
48667;SDS011;34453;52.198;5.004;2023-07-31T06:21:12;3.20;;;2.55;;
48667;SDS011;34453;52.198;5.004;2023-07-31T06:23:38;10.30;;;2.92;;
48667;SDS011;34453;52.198;5.004;2023-07-31T06:26:03;5.38;;;2.70;;
48667;SDS011;34453;52.198;5.004;2023-07-31T06:28:29;5.90;;;3.55;;
48667;SDS011;34453;52.198;5.004;2023-07-31T06:30:55;4.40;;;2.83;;
48667;SDS011;34453;52.198;5.004;2023-07-31T06:33:21;3.45;;;2.05;;
48667;SDS011;34453;52.198;5.004;2023-07-31T06:35:46;3.55;;;3.10;;
48667;SDS011;34453;52.198;5.004;2023-07-31T06:38:12;2.92;;;2.47;;
48667;SDS011;34453;52.198;5.004;2023-07-31T06:40:37;5.32;;;3.15;;
48667;SDS011;34453;52.198;5.004;2023-07-31T06:43:03;3.65;;;2.42;;
48667;SDS011;34453;52.198;5.004;2023-07-31T06:45:33;2.60;;;2.40;;
48667;SDS011;34453;52.198;5.004;2023-07-31T06:48:00;4.72;;;2.70;;
48667;SDS011;34453;52.198;5.004;2023-07-31T06:50:27;2.55;;;2.35;;
48667;SDS011;34453;52.198;5.004;2023-07-31T06:52:53;4.07;;;2.38;;
48667;SDS011;34453;52.198;5.004;2023-07-31T06:55:19;6.55;;;2.75;;
48667;SDS011;34453;52.198;5.004;2023-07-31T06:57:47;6.32;;;2.60;;
48667;SDS011;34453;52.198;5.004;2023-07-31T07:00:13;4.30;;;2.35;;
48667;SDS011;34453;52.198;5.004;2023-07-31T07:02:39;2.45;;;2.30;;
48667;SDS011;34453;52.198;5.004;2023-07-31T07:05:04;2.60;;;2.38;;
48667;SDS011;34453;52.198;5.004;2023-07-31T07:07:31;2.67;;;2.40;;
48667;SDS011;34453;52.198;5.004;2023-07-31T07:09:57;2.83;;;2.63;;
48667;SDS011;34453;52.198;5.004;2023-07-31T07:12:24;2.60;;;2.38;;
48667;SDS011;34453;52.198;5.004;2023-07-31T07:14:50;2.83;;;1.90;;
48667;SDS011;34453;52.198;5.004;2023-07-31T07:17:18;4.30;;;2.33;;
48667;SDS011;34453;52.198;5.004;2023-07-31T07:19:43;1.88;;;1.77;;
48667;SDS011;34453;52.198;5.004;2023-07-31T07:22:09;3.83;;;2.25;;
48667;SDS011;34453;52.198;5.004;2023-07-31T07:24:35;2.15;;;1.90;;
48667;SDS011;34453;52.198;5.004;2023-07-31T07:27:00;2.28;;;2.10;;
48667;SDS011;34453;52.198;5.004;2023-07-31T07:29:26;2.20;;;2.00;;
48667;SDS011;34453;52.198;5.004;2023-07-31T07:31:51;3.58;;;2.30;;
48667;SDS011;34453;52.198;5.004;2023-07-31T07:34:17;3.50;;;1.70;;
48667;SDS011;34453;52.198;5.004;2023-07-31T07:36:42;2.38;;;1.80;;
48667;SDS011;34453;52.198;5.004;2023-07-31T07:39:09;2.10;;;2.00;;
48667;SDS011;34453;52.198;5.004;2023-07-31T07:41:35;2.55;;;1.45;;
48667;SDS011;34453;52.198;5.004;2023-07-31T07:44:01;2.15;;;1.98;;
48667;SDS011;34453;52.198;5.004;2023-07-31T07:46:26;2.88;;;1.40;;
48667;SDS011;34453;52.198;5.004;2023-07-31T07:48:51;1.83;;;1.30;;
48667;SDS011;34453;52.198;5.004;2023-07-31T07:51:17;1.20;;;1.20;;
48667;SDS011;34453;52.198;5.004;2023-07-31T07:53:42;1.48;;;1.40;;
48667;SDS011;34453;52.198;5.004;2023-07-31T07:56:08;1.27;;;1.27;;
48667;SDS011;34453;52.198;5.004;2023-07-31T07:58:33;1.85;;;1.30;;
48667;SDS011;34453;52.198;5.004;2023-07-31T08:00:58;0.93;;;0.93;;
48667;SDS011;34453;52.198;5.004;2023-07-31T08:03:24;1.83;;;1.73;;
48667;SDS011;34453;52.198;5.004;2023-07-31T08:05:49;0.95;;;0.95;;
48667;SDS011;34453;52.198;5.004;2023-07-31T08:08:15;2.90;;;1.13;;
48667;SDS011;34453;52.198;5.004;2023-07-31T08:10:41;1.50;;;1.40;;
48667;SDS011;34453;52.198;5.004;2023-07-31T08:13:07;1.13;;;1.13;;
48667;SDS011;34453;52.198;5.004;2023-07-31T08:15:32;1.30;;;1.20;;
48667;SDS011;34453;52.198;5.004;2023-07-31T08:17:58;2.15;;;1.17;;
48667;SDS011;34453;52.198;5.004;2023-07-31T08:20:23;1.85;;;1.00;;
48667;SDS011;34453;52.198;5.004;2023-07-31T08:22:49;1.55;;;1.50;;
48667;SDS011;34453;52.198;5.004;2023-07-31T08:25:14;1.30;;;1.20;;
48667;SDS011;34453;52.198;5.004;2023-07-31T08:27:42;1.00;;;1.00;;
48667;SDS011;34453;52.198;5.004;2023-07-31T08:30:09;1.75;;;1.15;;
48667;SDS011;34453;52.198;5.004;2023-07-31T08:32:35;1.10;;;1.00;;
48667;SDS011;34453;52.198;5.004;2023-07-31T08:35:01;0.85;;;0.85;;
48667;SDS011;34453;52.198;5.004;2023-07-31T08:37:27;0.80;;;0.80;;
48667;SDS011;34453;52.198;5.004;2023-07-31T08:39:53;0.70;;;0.70;;
48667;SDS011;34453;52.198;5.004;2023-07-31T08:42:19;0.95;;;0.80;;
48667;SDS011;34453;52.198;5.004;2023-07-31T08:44:45;1.38;;;0.98;;
48667;SDS011;34453;52.198;5.004;2023-07-31T08:47:12;1.08;;;0.82;;
48667;SDS011;34453;52.198;5.004;2023-07-31T08:49:38;0.70;;;0.70;;
48667;SDS011;34453;52.198;5.004;2023-07-31T08:52:05;0.70;;;0.70;;
48667;SDS011;34453;52.198;5.004;2023-07-31T08:54:31;1.75;;;0.95;;
48667;SDS011;34453;52.198;5.004;2023-07-31T08:56:58;0.68;;;0.63;;
48667;SDS011;34453;52.198;5.004;2023-07-31T08:59:25;0.63;;;0.47;;
48667;SDS011;34453;52.198;5.004;2023-07-31T09:01:54;0.57;;;0.57;;
48667;SDS011;34453;52.198;5.004;2023-07-31T09:04:22;0.55;;;0.55;;
48667;SDS011;34453;52.198;5.004;2023-07-31T09:06:48;0.50;;;0.50;;
48667;SDS011;34453;52.198;5.004;2023-07-31T09:09:15;0.50;;;0.50;;
48667;SDS011;34453;52.198;5.004;2023-07-31T09:11:41;1.05;;;0.75;;
48667;SDS011;34453;52.198;5.004;2023-07-31T09:14:07;0.73;;;0.60;;
48667;SDS011;34453;52.198;5.004;2023-07-31T09:16:34;1.40;;;1.30;;
48667;SDS011;34453;52.198;5.004;2023-07-31T09:19:00;1.30;;;0.70;;
48667;SDS011;34453;52.198;5.004;2023-07-31T09:21:28;1.27;;;1.17;;
48667;SDS011;34453;52.198;5.004;2023-07-31T09:23:53;1.00;;;0.70;;
48667;SDS011;34453;52.198;5.004;2023-07-31T09:28:56;3.15;;;0.93;;
48667;SDS011;34453;52.198;5.004;2023-07-31T09:34:18;0.98;;;0.63;;
48667;SDS011;34453;52.198;5.004;2023-07-31T09:36:45;1.08;;;0.60;;
48667;SDS011;34453;52.198;5.004;2023-07-31T09:39:11;3.38;;;0.85;;
48667;SDS011;34453;52.198;5.004;2023-07-31T09:41:39;4.47;;;0.80;;
48667;SDS011;34453;52.198;5.004;2023-07-31T09:44:06;1.13;;;1.00;;
48667;SDS011;34453;52.198;5.004;2023-07-31T09:46:34;2.15;;;1.15;;
48667;SDS011;34453;52.198;5.004;2023-07-31T09:49:07;4.78;;;1.88;;
48667;SDS011;34453;52.198;5.004;2023-07-31T09:51:37;5.63;;;1.50;;
48667;SDS011;34453;52.198;5.004;2023-07-31T09:54:12;2.72;;;1.65;;
48667;SDS011;34453;52.198;5.004;2023-07-31T09:56:43;7.35;;;2.22;;
48667;SDS011;34453;52.198;5.004;2023-07-31T09:59:12;3.80;;;2.33;;
48667;SDS011;34453;52.198;5.004;2023-07-31T10:01:39;6.25;;;2.70;;
48667;SDS011;34453;52.198;5.004;2023-07-31T10:04:06;8.40;;;3.08;;
48667;SDS011;34453;52.198;5.004;2023-07-31T10:06:34;5.75;;;2.50;;
48667;SDS011;34453;52.198;5.004;2023-07-31T10:09:00;7.78;;;2.63;;
48667;SDS011;34453;52.198;5.004;2023-07-31T10:11:28;6.60;;;2.03;;
48667;SDS011;34453;52.198;5.004;2023-07-31T10:13:56;7.07;;;2.28;;
48667;SDS011;34453;52.198;5.004;2023-07-31T10:16:22;2.90;;;2.40;;
48667;SDS011;34453;52.198;5.004;2023-07-31T10:18:47;6.25;;;2.13;;
48667;SDS011;34453;52.198;5.004;2023-07-31T10:21:15;6.47;;;2.45;;
48667;SDS011;34453;52.198;5.004;2023-07-31T10:23:41;2.45;;;2.20;;
48667;SDS011;34453;52.198;5.004;2023-07-31T10:26:09;4.55;;;2.92;;
48667;SDS011;34453;52.198;5.004;2023-07-31T10:28:36;5.28;;;2.28;;
48667;SDS011;34453;52.198;5.004;2023-07-31T10:31:03;3.38;;;2.45;;
48667;SDS011;34453;52.198;5.004;2023-07-31T10:33:30;5.32;;;2.58;;
48667;SDS011;34453;52.198;5.004;2023-07-31T10:36:16;3.58;;;1.67;;
48667;SDS011;34453;52.198;5.004;2023-07-31T10:38:42;3.63;;;1.80;;
48667;SDS011;34453;52.198;5.004;2023-07-31T10:41:08;3.13;;;1.42;;
48667;SDS011;34453;52.198;5.004;2023-07-31T10:43:35;5.32;;;2.10;;
48667;SDS011;34453;52.198;5.004;2023-07-31T10:46:05;1.63;;;1.40;;
48667;SDS011;34453;52.198;5.004;2023-07-31T10:48:33;7.35;;;2.10;;
48667;SDS011;34453;52.198;5.004;2023-07-31T10:50:59;5.95;;;2.55;;
48667;SDS011;34453;52.198;5.004;2023-07-31T10:53:31;2.70;;;2.05;;
48667;SDS011;34453;52.198;5.004;2023-07-31T10:56:00;7.82;;;2.22;;
48667;SDS011;34453;52.198;5.004;2023-07-31T10:58:28;6.50;;;2.40;;
48667;SDS011;34453;52.198;5.004;2023-07-31T11:00:57;2.53;;;1.83;;
48667;SDS011;34453;52.198;5.004;2023-07-31T11:03:40;3.97;;;2.13;;
48667;SDS011;34453;52.198;5.004;2023-07-31T11:06:07;15.18;;;3.00;;
48667;SDS011;34453;52.198;5.004;2023-07-31T11:08:34;6.43;;;2.85;;
48667;SDS011;34453;52.198;5.004;2023-07-31T11:13:29;5.57;;;2.90;;
48667;SDS011;34453;52.198;5.004;2023-07-31T11:15:55;6.15;;;2.65;;
48667;SDS011;34453;52.198;5.004;2023-07-31T11:18:21;10.25;;;3.13;;
48667;SDS011;34453;52.198;5.004;2023-07-31T11:20:46;8.50;;;2.65;;
48667;SDS011;34453;52.198;5.004;2023-07-31T11:23:12;14.48;;;4.25;;
48667;SDS011;34453;52.198;5.004;2023-07-31T11:25:40;4.43;;;2.60;;
48667;SDS011;34453;52.198;5.004;2023-07-31T11:28:08;6.95;;;2.38;;
48667;SDS011;34453;52.198;5.004;2023-07-31T11:30:35;10.57;;;2.92;;
48667;SDS011;34453;52.198;5.004;2023-07-31T11:33:01;6.03;;;2.28;;
48667;SDS011;34453;52.198;5.004;2023-07-31T11:35:29;13.57;;;2.47;;
48667;SDS011;34453;52.198;5.004;2023-07-31T11:37:55;4.68;;;2.13;;
48667;SDS011;34453;52.198;5.004;2023-07-31T11:40:21;6.63;;;3.10;;
48667;SDS011;34453;52.198;5.004;2023-07-31T11:42:46;8.10;;;3.13;;
48667;SDS011;34453;52.198;5.004;2023-07-31T11:45:12;10.48;;;2.40;;
48667;SDS011;34453;52.198;5.004;2023-07-31T11:47:37;8.77;;;2.60;;
48667;SDS011;34453;52.198;5.004;2023-07-31T11:50:04;8.50;;;2.53;;
48667;SDS011;34453;52.198;5.004;2023-07-31T11:52:32;11.75;;;2.30;;
48667;SDS011;34453;52.198;5.004;2023-07-31T11:55:00;9.50;;;2.33;;
48667;SDS011;34453;52.198;5.004;2023-07-31T11:57:26;6.38;;;2.17;;
48667;SDS011;34453;52.198;5.004;2023-07-31T11:59:53;8.20;;;2.53;;
48667;SDS011;34453;52.198;5.004;2023-07-31T12:02:20;9.80;;;2.92;;
48667;SDS011;34453;52.198;5.004;2023-07-31T12:04:46;5.82;;;2.58;;
48667;SDS011;34453;52.198;5.004;2023-07-31T12:07:13;7.72;;;2.50;;
48667;SDS011;34453;52.198;5.004;2023-07-31T12:09:50;9.68;;;2.90;;
48667;SDS011;34453;52.198;5.004;2023-07-31T12:12:19;10.05;;;3.03;;
48667;SDS011;34453;52.198;5.004;2023-07-31T12:17:15;9.50;;;2.25;;
48667;SDS011;34453;52.198;5.004;2023-07-31T12:19:44;8.60;;;2.38;;
48667;SDS011;34453;52.198;5.004;2023-07-31T12:22:15;5.78;;;2.50;;
48667;SDS011;34453;52.198;5.004;2023-07-31T12:24:44;6.40;;;2.35;;
48667;SDS011;34453;52.198;5.004;2023-07-31T12:27:10;6.57;;;3.13;;
48667;SDS011;34453;52.198;5.004;2023-07-31T12:29:41;9.57;;;3.35;;
48667;SDS011;34453;52.198;5.004;2023-07-31T12:32:19;10.13;;;2.28;;
48667;SDS011;34453;52.198;5.004;2023-07-31T12:34:45;4.70;;;2.00;;
48667;SDS011;34453;52.198;5.004;2023-07-31T12:37:11;5.40;;;2.42;;
48667;SDS011;34453;52.198;5.004;2023-07-31T12:39:37;8.20;;;2.10;;
48667;SDS011;34453;52.198;5.004;2023-07-31T12:42:02;11.57;;;1.80;;
48667;SDS011;34453;52.198;5.004;2023-07-31T12:44:28;3.70;;;2.40;;
48667;SDS011;34453;52.198;5.004;2023-07-31T12:46:53;4.32;;;1.60;;
48667;SDS011;34453;52.198;5.004;2023-07-31T12:49:19;6.18;;;1.85;;
48667;SDS011;34453;52.198;5.004;2023-07-31T12:51:44;5.13;;;1.95;;
48667;SDS011;34453;52.198;5.004;2023-07-31T12:54:10;7.10;;;1.85;;
48667;SDS011;34453;52.198;5.004;2023-07-31T12:56:35;5.30;;;1.98;;
48667;SDS011;34453;52.198;5.004;2023-07-31T12:59:00;4.28;;;1.70;;
48667;SDS011;34453;52.198;5.004;2023-07-31T13:01:26;7.22;;;1.70;;
48667;SDS011;34453;52.198;5.004;2023-07-31T13:03:52;5.13;;;1.70;;
48667;SDS011;34453;52.198;5.004;2023-07-31T13:06:17;6.70;;;1.60;;
48667;SDS011;34453;52.198;5.004;2023-07-31T13:08:43;6.50;;;1.55;;
48667;SDS011;34453;52.198;5.004;2023-07-31T13:11:08;6.07;;;1.90;;
48667;SDS011;34453;52.198;5.004;2023-07-31T13:13:33;6.18;;;1.85;;
48667;SDS011;34453;52.198;5.004;2023-07-31T13:15:59;6.65;;;1.50;;
48667;SDS011;34453;52.198;5.004;2023-07-31T13:18:24;7.47;;;1.90;;
48667;SDS011;34453;52.198;5.004;2023-07-31T13:20:50;3.38;;;1.77;;
48667;SDS011;34453;52.198;5.004;2023-07-31T13:23:15;5.22;;;1.77;;
48667;SDS011;34453;52.198;5.004;2023-07-31T13:25:41;7.32;;;1.73;;
48667;SDS011;34453;52.198;5.004;2023-07-31T13:28:06;5.18;;;1.35;;
48667;SDS011;34453;52.198;5.004;2023-07-31T13:30:32;3.22;;;1.88;;
48667;SDS011;34453;52.198;5.004;2023-07-31T13:32:57;4.72;;;1.90;;
48667;SDS011;34453;52.198;5.004;2023-07-31T13:35:23;4.35;;;1.83;;
48667;SDS011;34453;52.198;5.004;2023-07-31T13:37:48;3.25;;;1.17;;
48667;SDS011;34453;52.198;5.004;2023-07-31T13:40:14;5.25;;;1.73;;
48667;SDS011;34453;52.198;5.004;2023-07-31T13:42:47;3.35;;;1.58;;
48667;SDS011;34453;52.198;5.004;2023-07-31T13:45:13;3.97;;;1.52;;
48667;SDS011;34453;52.198;5.004;2023-07-31T13:47:39;2.30;;;1.85;;
48667;SDS011;34453;52.198;5.004;2023-07-31T13:50:04;1.25;;;1.15;;
48667;SDS011;34453;52.198;5.004;2023-07-31T13:52:30;2.65;;;1.30;;
48667;SDS011;34453;52.198;5.004;2023-07-31T13:54:55;2.30;;;1.40;;
48667;SDS011;34453;52.198;5.004;2023-07-31T13:57:21;4.10;;;1.40;;
48667;SDS011;34453;52.198;5.004;2023-07-31T13:59:46;1.52;;;1.27;;
48667;SDS011;34453;52.198;5.004;2023-07-31T14:02:11;1.42;;;1.33;;
48667;SDS011;34453;52.198;5.004;2023-07-31T14:04:38;2.53;;;1.30;;
48667;SDS011;34453;52.198;5.004;2023-07-31T14:07:04;2.70;;;1.20;;
48667;SDS011;34453;52.198;5.004;2023-07-31T14:09:29;2.38;;;1.33;;
48667;SDS011;34453;52.198;5.004;2023-07-31T14:11:55;3.25;;;1.23;;
48667;SDS011;34453;52.198;5.004;2023-07-31T14:14:20;1.48;;;1.38;;
48667;SDS011;34453;52.198;5.004;2023-07-31T14:16:46;1.00;;;1.00;;
48667;SDS011;34453;52.198;5.004;2023-07-31T14:19:11;4.45;;;1.15;;
48667;SDS011;34453;52.198;5.004;2023-07-31T14:21:37;1.23;;;1.13;;
48667;SDS011;34453;52.198;5.004;2023-07-31T14:24:02;1.55;;;1.15;;
48667;SDS011;34453;52.198;5.004;2023-07-31T14:26:28;1.00;;;0.60;;
48667;SDS011;34453;52.198;5.004;2023-07-31T14:28:54;0.40;;;0.40;;
48667;SDS011;34453;52.198;5.004;2023-07-31T14:31:19;0.47;;;0.47;;
48667;SDS011;34453;52.198;5.004;2023-07-31T14:33:44;0.70;;;0.70;;
48667;SDS011;34453;52.198;5.004;2023-07-31T14:36:10;0.35;;;0.35;;
48667;SDS011;34453;52.198;5.004;2023-07-31T14:38:35;2.60;;;0.30;;
48667;SDS011;34453;52.198;5.004;2023-07-31T14:41:01;0.47;;;0.47;;
48667;SDS011;34453;52.198;5.004;2023-07-31T14:43:26;0.20;;;0.20;;
48667;SDS011;34453;52.198;5.004;2023-07-31T14:45:52;0.28;;;0.28;;
48667;SDS011;34453;52.198;5.004;2023-07-31T14:48:20;0.65;;;0.40;;
48667;SDS011;34453;52.198;5.004;2023-07-31T14:50:46;0.40;;;0.30;;
48667;SDS011;34453;52.198;5.004;2023-07-31T14:53:11;0.90;;;0.40;;
48667;SDS011;34453;52.198;5.004;2023-07-31T14:55:37;1.45;;;0.50;;
48667;SDS011;34453;52.198;5.004;2023-07-31T14:58:02;0.30;;;0.30;;
48667;SDS011;34453;52.198;5.004;2023-07-31T15:00:28;0.30;;;0.30;;